sensor_id;sensor_type;location;lat;lon;timestamp;temperature;humidity
74934;DHT22;63499;53.232;7.492;2023-01-26T00:02:15;-0.30;99.90
74934;DHT22;63499;53.232;7.492;2023-01-26T00:04:41;-0.30;99.90
74934;DHT22;63499;53.232;7.492;2023-01-26T00:07:07;-0.30;99.90
74934;DHT22;63499;53.232;7.492;2023-01-26T00:09:33;-0.30;99.90
74934;DHT22;63499;53.232;7.492;2023-01-26T00:11:59;-0.30;99.90
74934;DHT22;63499;53.232;7.492;2023-01-26T00:14:25;-0.30;99.90
74934;DHT22;63499;53.232;7.492;2023-01-26T00:16:51;-0.30;99.90
74934;DHT22;63499;53.232;7.492;2023-01-26T00:19:19;-0.30;99.90
74934;DHT22;63499;53.232;7.492;2023-01-26T00:21:44;-0.30;99.90
74934;DHT22;63499;53.232;7.492;2023-01-26T00:24:11;-0.30;99.90
74934;DHT22;63499;53.232;7.492;2023-01-26T00:26:36;-0.30;99.90
74934;DHT22;63499;53.232;7.492;2023-01-26T00:29:02;-0.30;99.90
74934;DHT22;63499;53.232;7.492;2023-01-26T00:31:28;-0.20;99.90
74934;DHT22;63499;53.232;7.492;2023-01-26T00:33:55;-0.20;99.90
74934;DHT22;63499;53.232;7.492;2023-01-26T00:36:21;-0.20;99.90
74934;DHT22;63499;53.232;7.492;2023-01-26T00:38:47;-0.20;99.90
74934;DHT22;63499;53.232;7.492;2023-01-26T00:41:13;-0.20;99.90
74934;DHT22;63499;53.232;7.492;2023-01-26T00:43:59;-0.20;99.90
74934;DHT22;63499;53.232;7.492;2023-01-26T00:46:26;-0.20;99.90
74934;DHT22;63499;53.232;7.492;2023-01-26T00:48:52;-0.10;99.90
74934;DHT22;63499;53.232;7.492;2023-01-26T00:51:18;-0.10;99.90
74934;DHT22;63499;53.232;7.492;2023-01-26T00:53:44;-0.10;99.90
74934;DHT22;63499;53.232;7.492;2023-01-26T00:56:11;-0.10;99.90
74934;DHT22;63499;53.232;7.492;2023-01-26T00:58:39;-0.10;99.90
74934;DHT22;63499;53.232;7.492;2023-01-26T01:01:05;0.00;99.90
74934;DHT22;63499;53.232;7.492;2023-01-26T01:03:33;-0.10;99.90
74934;DHT22;63499;53.232;7.492;2023-01-26T01:05:59;0.00;99.90
74934;DHT22;63499;53.232;7.492;2023-01-26T01:08:25;0.00;99.90
74934;DHT22;63499;53.232;7.492;2023-01-26T01:11:00;0.00;99.90
74934;DHT22;63499;53.232;7.492;2023-01-26T01:13:27;-0.10;99.90
74934;DHT22;63499;53.232;7.492;2023-01-26T01:15:53;-0.10;99.90
74934;DHT22;63499;53.232;7.492;2023-01-26T01:18:19;0.00;99.90
74934;DHT22;63499;53.232;7.492;2023-01-26T01:20:45;0.00;99.90
74934;DHT22;63499;53.232;7.492;2023-01-26T01:23:11;0.00;99.90
74934;DHT22;63499;53.232;7.492;2023-01-26T01:25:37;0.00;99.90
74934;DHT22;63499;53.232;7.492;2023-01-26T01:28:03;-0.10;99.90
74934;DHT22;63499;53.232;7.492;2023-01-26T01:30:29;0.00;99.90
74934;DHT22;63499;53.232;7.492;2023-01-26T01:32:55;0.00;99.90
74934;DHT22;63499;53.232;7.492;2023-01-26T01:35:21;0.00;99.90
74934;DHT22;63499;53.232;7.492;2023-01-26T01:37:47;0.00;99.90
74934;DHT22;63499;53.232;7.492;2023-01-26T01:40:13;0.00;99.90
74934;DHT22;63499;53.232;7.492;2023-01-26T01:42:45;0.00;99.90
74934;DHT22;63499;53.232;7.492;2023-01-26T01:47:53;0.00;99.90
74934;DHT22;63499;53.232;7.492;2023-01-26T01:50:20;0.10;99.90
74934;DHT22;63499;53.232;7.492;2023-01-26T01:52:47;0.10;99.90
74934;DHT22;63499;53.232;7.492;2023-01-26T01:55:13;0.10;99.90
74934;DHT22;63499;53.232;7.492;2023-01-26T01:57:41;0.10;99.90
74934;DHT22;63499;53.232;7.492;2023-01-26T02:00:12;0.10;99.90
74934;DHT22;63499;53.232;7.492;2023-01-26T02:02:39;0.10;99.90
74934;DHT22;63499;53.232;7.492;2023-01-26T02:05:07;0.10;99.90
74934;DHT22;63499;53.232;7.492;2023-01-26T02:07:35;0.10;99.90
74934;DHT22;63499;53.232;7.492;2023-01-26T02:10:02;0.20;99.90
74934;DHT22;63499;53.232;7.492;2023-01-26T02:12:43;0.10;99.90
74934;DHT22;63499;53.232;7.492;2023-01-26T02:15:11;0.20;99.90
74934;DHT22;63499;53.232;7.492;2023-01-26T02:17:37;0.20;99.90
74934;DHT22;63499;53.232;7.492;2023-01-26T02:20:17;0.20;99.90
74934;DHT22;63499;53.232;7.492;2023-01-26T02:22:57;0.20;99.90
74934;DHT22;63499;53.232;7.492;2023-01-26T02:28:10;0.20;99.90
74934;DHT22;63499;53.232;7.492;2023-01-26T02:30:36;0.20;99.90
74934;DHT22;63499;53.232;7.492;2023-01-26T02:33:02;0.20;99.90
74934;DHT22;63499;53.232;7.492;2023-01-26T02:35:28;0.20;99.90
74934;DHT22;63499;53.232;7.492;2023-01-26T02:37:55;0.20;99.90
74934;DHT22;63499;53.232;7.492;2023-01-26T02:42:50;0.30;99.90
74934;DHT22;63499;53.232;7.492;2023-01-26T02:45:19;0.30;99.90
74934;DHT22;63499;53.232;7.492;2023-01-26T02:47:46;0.30;99.90
74934;DHT22;63499;53.232;7.492;2023-01-26T02:50:12;0.30;99.90
74934;DHT22;63499;53.232;7.492;2023-01-26T02:52:41;0.20;99.90
74934;DHT22;63499;53.232;7.492;2023-01-26T02:55:14;0.20;99.90
74934;DHT22;63499;53.232;7.492;2023-01-26T02:57:54;0.30;99.90
74934;DHT22;63499;53.232;7.492;2023-01-26T03:00:22;0.30;99.90
74934;DHT22;63499;53.232;7.492;2023-01-26T03:02:50;0.30;99.90
74934;DHT22;63499;53.232;7.492;2023-01-26T03:05:16;0.30;99.90
74934;DHT22;63499;53.232;7.492;2023-01-26T03:07:43;0.30;99.90
74934;DHT22;63499;53.232;7.492;2023-01-26T03:10:09;0.30;99.90
74934;DHT22;63499;53.232;7.492;2023-01-26T03:12:35;0.30;99.90
74934;DHT22;63499;53.232;7.492;2023-01-26T03:15:01;0.30;99.90
74934;DHT22;63499;53.232;7.492;2023-01-26T03:17:46;0.30;99.90
74934;DHT22;63499;53.232;7.492;2023-01-26T03:20:12;0.30;99.90
74934;DHT22;63499;53.232;7.492;2023-01-26T03:22:56;0.30;99.90
74934;DHT22;63499;53.232;7.492;2023-01-26T03:25:42;0.30;99.90
74934;DHT22;63499;53.232;7.492;2023-01-26T03:28:29;0.30;99.90
74934;DHT22;63499;53.232;7.492;2023-01-26T03:30:55;0.30;99.90
74934;DHT22;63499;53.232;7.492;2023-01-26T03:33:22;0.30;99.90
74934;DHT22;63499;53.232;7.492;2023-01-26T03:35:50;0.30;99.90
74934;DHT22;63499;53.232;7.492;2023-01-26T03:38:17;0.30;99.90
74934;DHT22;63499;53.232;7.492;2023-01-26T03:40:47;0.30;99.90
74934;DHT22;63499;53.232;7.492;2023-01-26T03:43:32;0.30;99.90
74934;DHT22;63499;53.232;7.492;2023-01-26T03:46:16;0.30;99.90
74934;DHT22;63499;53.232;7.492;2023-01-26T03:49:02;0.40;99.90
74934;DHT22;63499;53.232;7.492;2023-01-26T03:51:51;0.30;99.90
74934;DHT22;63499;53.232;7.492;2023-01-26T03:54:36;0.30;99.90
74934;DHT22;63499;53.232;7.492;2023-01-26T03:57:20;0.30;99.90
74934;DHT22;63499;53.232;7.492;2023-01-26T03:59:47;0.30;99.90
74934;DHT22;63499;53.232;7.492;2023-01-26T04:02:18;0.30;99.90
74934;DHT22;63499;53.232;7.492;2023-01-26T04:05:04;0.30;99.90
74934;DHT22;63499;53.232;7.492;2023-01-26T04:07:53;0.30;99.90
74934;DHT22;63499;53.232;7.492;2023-01-26T04:10:38;0.30;99.90
74934;DHT22;63499;53.232;7.492;2023-01-26T04:13:04;0.30;99.90
74934;DHT22;63499;53.232;7.492;2023-01-26T04:15:55;0.30;99.90
74934;DHT22;63499;53.232;7.492;2023-01-26T04:18:40;0.40;99.90
74934;DHT22;63499;53.232;7.492;2023-01-26T04:21:24;0.40;99.90
74934;DHT22;63499;53.232;7.492;2023-01-26T04:24:06;0.30;99.90
74934;DHT22;63499;53.232;7.492;2023-01-26T04:26:39;0.40;99.90
74934;DHT22;63499;53.232;7.492;2023-01-26T04:29:09;0.40;99.90
74934;DHT22;63499;53.232;7.492;2023-01-26T04:31:37;0.40;99.90
74934;DHT22;63499;53.232;7.492;2023-01-26T04:34:03;0.30;99.90
74934;DHT22;63499;53.232;7.492;2023-01-26T04:36:30;0.30;99.90
74934;DHT22;63499;53.232;7.492;2023-01-26T04:38:56;0.40;99.90
74934;DHT22;63499;53.232;7.492;2023-01-26T04:41:22;0.40;99.90
74934;DHT22;63499;53.232;7.492;2023-01-26T04:43:56;0.40;99.90
74934;DHT22;63499;53.232;7.492;2023-01-26T04:46:22;0.40;99.90
74934;DHT22;63499;53.232;7.492;2023-01-26T04:48:49;0.40;99.90
74934;DHT22;63499;53.232;7.492;2023-01-26T04:51:17;0.50;99.90
74934;DHT22;63499;53.232;7.492;2023-01-26T04:53:45;0.50;99.90
74934;DHT22;63499;53.232;7.492;2023-01-26T04:56:19;0.50;99.90
74934;DHT22;63499;53.232;7.492;2023-01-26T04:58:46;0.50;99.90
74934;DHT22;63499;53.232;7.492;2023-01-26T05:01:12;0.50;99.90
74934;DHT22;63499;53.232;7.492;2023-01-26T05:03:39;0.50;99.90
74934;DHT22;63499;53.232;7.492;2023-01-26T05:06:05;0.50;99.90
74934;DHT22;63499;53.232;7.492;2023-01-26T05:08:31;0.50;99.90
74934;DHT22;63499;53.232;7.492;2023-01-26T05:10:57;0.50;99.90
74934;DHT22;63499;53.232;7.492;2023-01-26T05:13:43;0.50;99.90
74934;DHT22;63499;53.232;7.492;2023-01-26T05:16:41;0.50;99.90
74934;DHT22;63499;53.232;7.492;2023-01-26T05:19:20;0.50;99.90
74934;DHT22;63499;53.232;7.492;2023-01-26T05:21:56;0.50;99.90
74934;DHT22;63499;53.232;7.492;2023-01-26T05:24:22;0.50;99.90
74934;DHT22;63499;53.232;7.492;2023-01-26T05:27:24;0.50;99.90
74934;DHT22;63499;53.232;7.492;2023-01-26T05:29:58;0.60;99.90
74934;DHT22;63499;53.232;7.492;2023-01-26T05:32:31;0.60;99.90
74934;DHT22;63499;53.232;7.492;2023-01-26T05:34:57;0.60;99.90
74934;DHT22;63499;53.232;7.492;2023-01-26T05:37:24;0.60;99.90
74934;DHT22;63499;53.232;7.492;2023-01-26T05:39:50;0.60;99.90
74934;DHT22;63499;53.232;7.492;2023-01-26T05:42:16;0.60;99.90
74934;DHT22;63499;53.232;7.492;2023-01-26T05:44:59;0.60;99.90
74934;DHT22;63499;53.232;7.492;2023-01-26T05:47:26;0.60;99.90
74934;DHT22;63499;53.232;7.492;2023-01-26T05:49:52;0.70;99.90
74934;DHT22;63499;53.232;7.492;2023-01-26T05:52:26;0.60;99.90
74934;DHT22;63499;53.232;7.492;2023-01-26T05:54:52;0.70;99.90
74934;DHT22;63499;53.232;7.492;2023-01-26T05:57:18;0.70;99.90
74934;DHT22;63499;53.232;7.492;2023-01-26T05:59:51;0.70;99.90
74934;DHT22;63499;53.232;7.492;2023-01-26T06:02:17;0.70;99.90
74934;DHT22;63499;53.232;7.492;2023-01-26T06:04:44;0.70;99.90
74934;DHT22;63499;53.232;7.492;2023-01-26T06:07:10;0.80;99.90
74934;DHT22;63499;53.232;7.492;2023-01-26T06:09:58;0.80;99.90
74934;DHT22;63499;53.232;7.492;2023-01-26T06:12:39;0.80;99.90
74934;DHT22;63499;53.232;7.492;2023-01-26T06:15:27;0.80;99.90
74934;DHT22;63499;53.232;7.492;2023-01-26T06:17:53;0.80;99.90
74934;DHT22;63499;53.232;7.492;2023-01-26T06:20:19;0.80;99.90
74934;DHT22;63499;53.232;7.492;2023-01-26T06:22:53;0.80;99.90
74934;DHT22;63499;53.232;7.492;2023-01-26T06:25:25;0.80;99.90
74934;DHT22;63499;53.232;7.492;2023-01-26T06:27:55;0.80;99.90
74934;DHT22;63499;53.232;7.492;2023-01-26T06:30:25;0.80;99.90
74934;DHT22;63499;53.232;7.492;2023-01-26T06:32:52;0.80;99.90
74934;DHT22;63499;53.232;7.492;2023-01-26T06:35:18;0.90;99.90
74934;DHT22;63499;53.232;7.492;2023-01-26T06:37:48;0.90;99.90
74934;DHT22;63499;53.232;7.492;2023-01-26T06:40:15;0.90;99.90
74934;DHT22;63499;53.232;7.492;2023-01-26T06:42:48;0.90;99.90
74934;DHT22;63499;53.232;7.492;2023-01-26T06:45:15;0.90;99.90
74934;DHT22;63499;53.232;7.492;2023-01-26T06:47:45;0.90;99.90
74934;DHT22;63499;53.232;7.492;2023-01-26T06:50:17;0.90;99.90
74934;DHT22;63499;53.232;7.492;2023-01-26T06:52:45;1.00;99.90
74934;DHT22;63499;53.232;7.492;2023-01-26T06:55:33;1.00;99.90
74934;DHT22;63499;53.232;7.492;2023-01-26T06:58:20;1.00;99.90
74934;DHT22;63499;53.232;7.492;2023-01-26T07:01:05;1.00;99.90
74934;DHT22;63499;53.232;7.492;2023-01-26T07:03:34;1.00;99.90
74934;DHT22;63499;53.232;7.492;2023-01-26T07:06:00;1.00;99.90
74934;DHT22;63499;53.232;7.492;2023-01-26T07:08:26;1.00;99.90
74934;DHT22;63499;53.232;7.492;2023-01-26T07:10:52;1.10;99.90
74934;DHT22;63499;53.232;7.492;2023-01-26T07:13:18;1.10;99.90
74934;DHT22;63499;53.232;7.492;2023-01-26T07:15:44;1.10;99.90
74934;DHT22;63499;53.232;7.492;2023-01-26T07:18:10;1.10;99.90
74934;DHT22;63499;53.232;7.492;2023-01-26T07:20:37;1.10;99.90
74934;DHT22;63499;53.232;7.492;2023-01-26T07:23:02;1.10;99.90
74934;DHT22;63499;53.232;7.492;2023-01-26T07:25:28;1.10;99.90
74934;DHT22;63499;53.232;7.492;2023-01-26T07:27:57;1.10;99.90
74934;DHT22;63499;53.232;7.492;2023-01-26T07:30:24;1.20;99.90
74934;DHT22;63499;53.232;7.492;2023-01-26T07:32:50;1.20;99.90
74934;DHT22;63499;53.232;7.492;2023-01-26T07:35:16;1.20;99.90
74934;DHT22;63499;53.232;7.492;2023-01-26T07:37:42;1.20;99.90
74934;DHT22;63499;53.232;7.492;2023-01-26T07:40:08;1.20;99.90
74934;DHT22;63499;53.232;7.492;2023-01-26T07:42:34;1.20;99.90
74934;DHT22;63499;53.232;7.492;2023-01-26T07:45:16;1.20;99.90
74934;DHT22;63499;53.232;7.492;2023-01-26T07:47:43;1.30;99.90
74934;DHT22;63499;53.232;7.492;2023-01-26T07:50:09;1.30;99.90
74934;DHT22;63499;53.232;7.492;2023-01-26T07:52:36;1.30;99.90
74934;DHT22;63499;53.232;7.492;2023-01-26T07:55:03;1.30;99.90
74934;DHT22;63499;53.232;7.492;2023-01-26T07:57:29;1.40;99.90
74934;DHT22;63499;53.232;7.492;2023-01-26T07:59:55;1.40;99.90
74934;DHT22;63499;53.232;7.492;2023-01-26T08:02:21;1.50;99.90
74934;DHT22;63499;53.232;7.492;2023-01-26T08:04:47;1.50;99.90
74934;DHT22;63499;53.232;7.492;2023-01-26T08:07:14;1.60;99.90
74934;DHT22;63499;53.232;7.492;2023-01-26T08:09:40;1.60;99.90
74934;DHT22;63499;53.232;7.492;2023-01-26T08:12:06;1.60;99.90
74934;DHT22;63499;53.232;7.492;2023-01-26T08:14:33;1.60;99.90
74934;DHT22;63499;53.232;7.492;2023-01-26T08:17:01;1.70;99.90
74934;DHT22;63499;53.232;7.492;2023-01-26T08:19:27;1.70;99.90
74934;DHT22;63499;53.232;7.492;2023-01-26T08:21:53;1.70;99.90
74934;DHT22;63499;53.232;7.492;2023-01-26T08:24:19;1.70;99.90
74934;DHT22;63499;53.232;7.492;2023-01-26T08:26:45;1.80;99.90
74934;DHT22;63499;53.232;7.492;2023-01-26T08:29:11;1.80;99.90
74934;DHT22;63499;53.232;7.492;2023-01-26T08:31:37;1.80;99.90
74934;DHT22;63499;53.232;7.492;2023-01-26T08:34:04;1.90;99.90
74934;DHT22;63499;53.232;7.492;2023-01-26T08:36:30;1.90;99.90
74934;DHT22;63499;53.232;7.492;2023-01-26T08:38:56;1.90;99.90
74934;DHT22;63499;53.232;7.492;2023-01-26T08:41:22;2.00;99.90
74934;DHT22;63499;53.232;7.492;2023-01-26T08:43:49;1.90;99.90
74934;DHT22;63499;53.232;7.492;2023-01-26T08:46:17;2.00;99.90
74934;DHT22;63499;53.232;7.492;2023-01-26T08:48:43;2.00;99.90
74934;DHT22;63499;53.232;7.492;2023-01-26T08:51:09;2.00;99.90
74934;DHT22;63499;53.232;7.492;2023-01-26T08:53:36;2.00;99.90
74934;DHT22;63499;53.232;7.492;2023-01-26T08:56:03;2.00;99.90
74934;DHT22;63499;53.232;7.492;2023-01-26T08:58:29;2.00;99.90
74934;DHT22;63499;53.232;7.492;2023-01-26T09:00:56;2.00;99.90
74934;DHT22;63499;53.232;7.492;2023-01-26T09:03:22;2.00;99.90
74934;DHT22;63499;53.232;7.492;2023-01-26T09:05:48;2.00;99.90
74934;DHT22;63499;53.232;7.492;2023-01-26T09:08:14;2.00;99.90
74934;DHT22;63499;53.232;7.492;2023-01-26T09:10:40;2.00;99.90
74934;DHT22;63499;53.232;7.492;2023-01-26T09:13:08;2.00;99.90
74934;DHT22;63499;53.232;7.492;2023-01-26T09:15:35;2.00;99.90
74934;DHT22;63499;53.232;7.492;2023-01-26T09:18:02;2.00;99.90
74934;DHT22;63499;53.232;7.492;2023-01-26T09:20:28;2.10;99.90
74934;DHT22;63499;53.232;7.492;2023-01-26T09:22:54;2.10;99.90
74934;DHT22;63499;53.232;7.492;2023-01-26T09:25:20;2.20;99.90
74934;DHT22;63499;53.232;7.492;2023-01-26T09:27:46;2.20;99.90
74934;DHT22;63499;53.232;7.492;2023-01-26T09:30:13;2.30;99.90
74934;DHT22;63499;53.232;7.492;2023-01-26T09:32:39;2.40;99.90
74934;DHT22;63499;53.232;7.492;2023-01-26T09:35:05;2.50;99.90
74934;DHT22;63499;53.232;7.492;2023-01-26T09:37:36;2.50;99.90
74934;DHT22;63499;53.232;7.492;2023-01-26T09:40:04;2.60;99.90
74934;DHT22;63499;53.232;7.492;2023-01-26T09:42:38;2.70;99.90
74934;DHT22;63499;53.232;7.492;2023-01-26T09:52:37;3.20;99.90
74934;DHT22;63499;53.232;7.492;2023-01-26T09:55:05;3.30;99.90
74934;DHT22;63499;53.232;7.492;2023-01-26T10:00:07;3.50;99.90
74934;DHT22;63499;53.232;7.492;2023-01-26T10:02:59;3.60;99.90
74934;DHT22;63499;53.232;7.492;2023-01-26T10:08:35;4.00;99.90
74934;DHT22;63499;53.232;7.492;2023-01-26T10:11:03;4.10;99.90
74934;DHT22;63499;53.232;7.492;2023-01-26T10:13:31;4.30;99.90
74934;DHT22;63499;53.232;7.492;2023-01-26T10:15:59;4.50;99.90
74934;DHT22;63499;53.232;7.492;2023-01-26T10:18:31;4.60;99.90
74934;DHT22;63499;53.232;7.492;2023-01-26T10:20:58;4.70;99.90
74934;DHT22;63499;53.232;7.492;2023-01-26T10:23:30;4.80;99.90
74934;DHT22;63499;53.232;7.492;2023-01-26T10:26:10;4.90;99.90
74934;DHT22;63499;53.232;7.492;2023-01-26T10:28:37;4.90;99.90
74934;DHT22;63499;53.232;7.492;2023-01-26T10:31:03;5.00;99.90
74934;DHT22;63499;53.232;7.492;2023-01-26T10:33:31;5.00;99.90
74934;DHT22;63499;53.232;7.492;2023-01-26T10:35:59;5.10;99.90
74934;DHT22;63499;53.232;7.492;2023-01-26T10:40:58;5.20;99.90
74934;DHT22;63499;53.232;7.492;2023-01-26T10:43:25;5.30;99.90
74934;DHT22;63499;53.232;7.492;2023-01-26T10:45:51;5.30;99.90
74934;DHT22;63499;53.232;7.492;2023-01-26T10:48:18;5.40;99.90
74934;DHT22;63499;53.232;7.492;2023-01-26T10:50:45;5.40;99.90
74934;DHT22;63499;53.232;7.492;2023-01-26T10:53:13;5.50;99.90
74934;DHT22;63499;53.232;7.492;2023-01-26T10:55:40;5.50;99.90
74934;DHT22;63499;53.232;7.492;2023-01-26T10:58:28;5.50;99.90
74934;DHT22;63499;53.232;7.492;2023-01-26T11:00:55;5.50;99.90
74934;DHT22;63499;53.232;7.492;2023-01-26T11:03:22;5.60;99.90
74934;DHT22;63499;53.232;7.492;2023-01-26T11:06:35;5.60;99.90
74934;DHT22;63499;53.232;7.492;2023-01-26T11:08:42;5.70;99.90
74934;DHT22;63499;53.232;7.492;2023-01-26T11:11:22;5.70;99.90
74934;DHT22;63499;53.232;7.492;2023-01-26T11:13:51;5.80;99.90
74934;DHT22;63499;53.232;7.492;2023-01-26T11:16:34;5.80;99.90
74934;DHT22;63499;53.232;7.492;2023-01-26T11:19:11;5.80;99.90
74934;DHT22;63499;53.232;7.492;2023-01-26T11:21:45;5.80;99.90
74934;DHT22;63499;53.232;7.492;2023-01-26T11:24:25;5.90;99.90
74934;DHT22;63499;53.232;7.492;2023-01-26T11:29:39;6.00;99.90
74934;DHT22;63499;53.232;7.492;2023-01-26T11:40:20;6.30;99.90
74934;DHT22;63499;53.232;7.492;2023-01-26T11:42:57;6.40;99.90
74934;DHT22;63499;53.232;7.492;2023-01-26T11:45:46;6.50;99.90
74934;DHT22;63499;53.232;7.492;2023-01-26T11:48:38;6.50;99.90
74934;DHT22;63499;53.232;7.492;2023-01-26T11:58:40;6.80;99.90
74934;DHT22;63499;53.232;7.492;2023-01-26T12:01:13;6.80;99.90
74934;DHT22;63499;53.232;7.492;2023-01-26T12:03:44;6.80;99.90
74934;DHT22;63499;53.232;7.492;2023-01-26T12:06:34;6.70;99.90
74934;DHT22;63499;53.232;7.492;2023-01-26T12:08:59;6.80;99.90
74934;DHT22;63499;53.232;7.492;2023-01-26T12:11:41;6.90;99.90
74934;DHT22;63499;53.232;7.492;2023-01-26T12:14:20;7.00;99.90
74934;DHT22;63499;53.232;7.492;2023-01-26T12:16:52;7.00;99.90
74934;DHT22;63499;53.232;7.492;2023-01-26T12:21:59;7.00;99.90
74934;DHT22;63499;53.232;7.492;2023-01-26T12:24:38;7.00;99.90
74934;DHT22;63499;53.232;7.492;2023-01-26T12:27:09;7.00;99.90
74934;DHT22;63499;53.232;7.492;2023-01-26T12:29:51;7.00;99.90
74934;DHT22;63499;53.232;7.492;2023-01-26T12:32:21;7.00;99.90
74934;DHT22;63499;53.232;7.492;2023-01-26T12:34:47;7.10;99.90
74934;DHT22;63499;53.232;7.492;2023-01-26T12:47:25;7.20;99.90
74934;DHT22;63499;53.232;7.492;2023-01-26T12:52:39;7.20;99.90
74934;DHT22;63499;53.232;7.492;2023-01-26T12:57:50;7.20;99.90
74934;DHT22;63499;53.232;7.492;2023-01-26T13:02:47;7.20;99.90
74934;DHT22;63499;53.232;7.492;2023-01-26T13:05:28;7.30;99.90
74934;DHT22;63499;53.232;7.492;2023-01-26T13:07:54;7.30;99.90
74934;DHT22;63499;53.232;7.492;2023-01-26T13:10:27;7.30;99.90
74934;DHT22;63499;53.232;7.492;2023-01-26T13:15:29;7.40;99.90
74934;DHT22;63499;53.232;7.492;2023-01-26T13:18:02;7.40;99.90
74934;DHT22;63499;53.232;7.492;2023-01-26T13:20:47;7.40;99.90
74934;DHT22;63499;53.232;7.492;2023-01-26T13:26:08;7.30;99.90
74934;DHT22;63499;53.232;7.492;2023-01-26T13:28:35;7.20;99.90
74934;DHT22;63499;53.232;7.492;2023-01-26T13:31:02;7.20;99.90
74934;DHT22;63499;53.232;7.492;2023-01-26T13:33:28;7.10;99.90
74934;DHT22;63499;53.232;7.492;2023-01-26T13:35:54;7.00;99.90
74934;DHT22;63499;53.232;7.492;2023-01-26T13:40:49;6.90;99.90
74934;DHT22;63499;53.232;7.492;2023-01-26T13:51:00;6.80;99.90
74934;DHT22;63499;53.232;7.492;2023-01-26T13:53:37;6.80;99.90
74934;DHT22;63499;53.232;7.492;2023-01-26T13:56:04;6.80;99.90
74934;DHT22;63499;53.232;7.492;2023-01-26T13:58:31;6.80;99.90
74934;DHT22;63499;53.232;7.492;2023-01-26T14:01:03;6.70;99.90
74934;DHT22;63499;53.232;7.492;2023-01-26T14:03:29;6.70;99.90
74934;DHT22;63499;53.232;7.492;2023-01-26T14:05:56;6.70;99.90
74934;DHT22;63499;53.232;7.492;2023-01-26T14:08:23;6.70;99.90
74934;DHT22;63499;53.232;7.492;2023-01-26T14:10:49;6.70;99.90
74934;DHT22;63499;53.232;7.492;2023-01-26T14:13:18;6.70;99.90
74934;DHT22;63499;53.232;7.492;2023-01-26T14:15:45;6.70;99.90
74934;DHT22;63499;53.232;7.492;2023-01-26T14:18:20;6.70;99.90
74934;DHT22;63499;53.232;7.492;2023-01-26T14:20:47;6.70;99.90
74934;DHT22;63499;53.232;7.492;2023-01-26T14:23:14;6.70;99.90
74934;DHT22;63499;53.232;7.492;2023-01-26T14:25:42;6.60;99.90
74934;DHT22;63499;53.232;7.492;2023-01-26T14:28:16;6.60;99.90
74934;DHT22;63499;53.232;7.492;2023-01-26T14:30:43;6.60;99.90
74934;DHT22;63499;53.232;7.492;2023-01-26T14:33:15;6.60;99.90
74934;DHT22;63499;53.232;7.492;2023-01-26T14:35:42;6.60;99.90
74934;DHT22;63499;53.232;7.492;2023-01-26T14:38:19;6.60;99.90
74934;DHT22;63499;53.232;7.492;2023-01-26T14:40:54;6.60;99.90
74934;DHT22;63499;53.232;7.492;2023-01-26T14:43:21;6.60;99.90
74934;DHT22;63499;53.232;7.492;2023-01-26T14:46:04;6.50;99.90
74934;DHT22;63499;53.232;7.492;2023-01-26T14:48:45;6.50;99.90
74934;DHT22;63499;53.232;7.492;2023-01-26T14:51:17;6.50;99.90
74934;DHT22;63499;53.232;7.492;2023-01-26T14:53:51;6.60;99.90
74934;DHT22;63499;53.232;7.492;2023-01-26T14:56:19;6.50;99.90
74934;DHT22;63499;53.232;7.492;2023-01-26T14:58:48;6.50;99.90
74934;DHT22;63499;53.232;7.492;2023-01-26T15:01:18;6.50;99.90
74934;DHT22;63499;53.232;7.492;2023-01-26T15:03:45;6.50;99.90
74934;DHT22;63499;53.232;7.492;2023-01-26T15:08:39;6.50;99.90
74934;DHT22;63499;53.232;7.492;2023-01-26T15:11:05;6.50;99.90
74934;DHT22;63499;53.232;7.492;2023-01-26T15:13:53;6.40;99.90
74934;DHT22;63499;53.232;7.492;2023-01-26T15:16:23;6.40;99.90
74934;DHT22;63499;53.232;7.492;2023-01-26T15:18:59;6.40;99.90
74934;DHT22;63499;53.232;7.492;2023-01-26T15:21:35;6.40;99.90
74934;DHT22;63499;53.232;7.492;2023-01-26T15:24:05;6.30;99.90
74934;DHT22;63499;53.232;7.492;2023-01-26T15:26:32;6.30;99.90
74934;DHT22;63499;53.232;7.492;2023-01-26T15:28:59;6.30;99.90
74934;DHT22;63499;53.232;7.492;2023-01-26T15:31:33;6.30;99.90
74934;DHT22;63499;53.232;7.492;2023-01-26T15:33:59;6.20;99.90
74934;DHT22;63499;53.232;7.492;2023-01-26T15:39:16;6.20;99.90
74934;DHT22;63499;53.232;7.492;2023-01-26T15:41:55;6.20;99.90
74934;DHT22;63499;53.232;7.492;2023-01-26T15:44:22;6.10;99.90
74934;DHT22;63499;53.232;7.492;2023-01-26T15:46:48;6.00;99.90
74934;DHT22;63499;53.232;7.492;2023-01-26T15:49:15;6.00;99.90
74934;DHT22;63499;53.232;7.492;2023-01-26T15:51:45;5.90;99.90
74934;DHT22;63499;53.232;7.492;2023-01-26T15:54:11;5.90;99.90
74934;DHT22;63499;53.232;7.492;2023-01-26T15:56:37;5.80;99.90
74934;DHT22;63499;53.232;7.492;2023-01-26T15:59:03;5.80;99.90
74934;DHT22;63499;53.232;7.492;2023-01-26T16:01:29;5.80;99.90
74934;DHT22;63499;53.232;7.492;2023-01-26T16:03:55;5.70;99.90
74934;DHT22;63499;53.232;7.492;2023-01-26T16:06:31;5.70;99.90
74934;DHT22;63499;53.232;7.492;2023-01-26T16:08:57;5.70;99.90
74934;DHT22;63499;53.232;7.492;2023-01-26T16:11:25;5.70;99.90
74934;DHT22;63499;53.232;7.492;2023-01-26T16:13:52;5.70;99.90
74934;DHT22;63499;53.232;7.492;2023-01-26T16:16:18;5.60;99.90
74934;DHT22;63499;53.232;7.492;2023-01-26T16:18:44;5.60;99.90
74934;DHT22;63499;53.232;7.492;2023-01-26T16:21:21;5.60;99.90
74934;DHT22;63499;53.232;7.492;2023-01-26T16:23:47;5.60;99.90
74934;DHT22;63499;53.232;7.492;2023-01-26T16:26:15;5.50;99.90
74934;DHT22;63499;53.232;7.492;2023-01-26T16:28:41;5.50;99.90
74934;DHT22;63499;53.232;7.492;2023-01-26T16:31:11;5.40;99.90
74934;DHT22;63499;53.232;7.492;2023-01-26T16:33:37;5.40;99.90
74934;DHT22;63499;53.232;7.492;2023-01-26T16:36:03;5.40;99.90
74934;DHT22;63499;53.232;7.492;2023-01-26T16:38:29;5.40;99.90
74934;DHT22;63499;53.232;7.492;2023-01-26T16:40:56;5.40;99.90
74934;DHT22;63499;53.232;7.492;2023-01-26T16:43:25;5.40;99.90
74934;DHT22;63499;53.232;7.492;2023-01-26T16:45:54;5.40;99.90
74934;DHT22;63499;53.232;7.492;2023-01-26T16:48:20;5.40;99.90
74934;DHT22;63499;53.232;7.492;2023-01-26T16:50:49;5.40;99.90
74934;DHT22;63499;53.232;7.492;2023-01-26T16:55:41;5.40;99.90
74934;DHT22;63499;53.232;7.492;2023-01-26T16:58:07;5.40;99.90
74934;DHT22;63499;53.232;7.492;2023-01-26T17:00:33;5.30;99.90
74934;DHT22;63499;53.232;7.492;2023-01-26T17:02:59;5.30;99.90
74934;DHT22;63499;53.232;7.492;2023-01-26T17:05:25;5.30;99.90
74934;DHT22;63499;53.232;7.492;2023-01-26T17:07:51;5.30;99.90
74934;DHT22;63499;53.232;7.492;2023-01-26T17:10:17;5.30;99.90
74934;DHT22;63499;53.232;7.492;2023-01-26T17:12:43;5.30;99.90
74934;DHT22;63499;53.232;7.492;2023-01-26T17:15:10;5.30;99.90
74934;DHT22;63499;53.232;7.492;2023-01-26T17:17:36;5.20;99.90
74934;DHT22;63499;53.232;7.492;2023-01-26T17:20:03;5.20;99.90
74934;DHT22;63499;53.232;7.492;2023-01-26T17:22:29;5.10;99.90
74934;DHT22;63499;53.232;7.492;2023-01-26T17:24:56;5.10;99.90
74934;DHT22;63499;53.232;7.492;2023-01-26T17:27:22;5.10;99.90
74934;DHT22;63499;53.232;7.492;2023-01-26T17:29:48;5.10;99.90